createdAt,value
2022-08-10T00:01:54.229Z,24.80
2022-08-10T00:04:23.165Z,24.80
2022-08-10T00:06:52.641Z,24.80
2022-08-10T00:09:19.865Z,24.80
2022-08-10T00:11:46.761Z,24.70
2022-08-10T00:14:13.747Z,24.70
2022-08-10T00:16:40.620Z,24.70
2022-08-10T00:19:07.581Z,24.70
2022-08-10T00:21:34.505Z,24.70
2022-08-10T00:24:01.454Z,24.60
2022-08-10T00:27:58.829Z,24.60
2022-08-10T00:29:15.370Z,24.60
2022-08-10T00:31:58.890Z,24.50
2022-08-10T00:34:31.772Z,24.50
2022-08-10T00:36:59.651Z,24.50
2022-08-10T00:39:27.830Z,24.40
2022-08-10T00:42:07.151Z,24.40
2022-08-10T00:44:45.997Z,24.30
2022-08-10T00:47:36.039Z,24.20
2022-08-10T00:50:01.306Z,24.20
2022-08-10T00:52:30.788Z,24.10
2022-08-10T00:54:58.075Z,24.10
2022-08-10T00:57:25.720Z,24.00
2022-08-10T00:59:57.877Z,24.00
2022-08-10T01:02:32.163Z,24.00
2022-08-10T01:05:03.267Z,23.90
2022-08-10T01:07:36.092Z,23.90
2022-08-10T01:10:09.565Z,23.90
2022-08-10T01:12:55.260Z,23.80
2022-08-10T01:15:48.173Z,23.80
2022-08-10T01:18:23.971Z,23.70
2022-08-10T01:21:18.009Z,23.70
2022-08-10T01:24:06.243Z,23.60
2022-08-10T01:26:42.328Z,23.70
2022-08-10T01:29:38.269Z,23.70
2022-08-10T01:32:07.135Z,23.70
2022-08-10T01:34:51.947Z,23.60
2022-08-10T01:37:24.611Z,23.60
2022-08-10T01:39:56.333Z,23.70
2022-08-10T01:42:25.131Z,23.60
2022-08-10T01:45:03.180Z,23.50
2022-08-10T01:47:52.729Z,23.50
2022-08-10T01:50:22.852Z,23.40
2022-08-10T01:52:52.987Z,23.40
2022-08-10T01:55:20.881Z,23.40
2022-08-10T01:57:49.233Z,23.40
2022-08-10T02:00:17.353Z,23.30
2022-08-10T02:02:46.293Z,23.30
2022-08-10T02:05:15.933Z,23.20
2022-08-10T02:07:43.876Z,23.20
2022-08-10T02:10:14.384Z,23.20
2022-08-10T02:15:39.561Z,23.10
2022-08-10T02:18:28.103Z,23.10
2022-08-10T02:20:57.144Z,23.10
2022-08-10T02:23:31.185Z,23.10
2022-08-10T02:26:00.834Z,23.10
2022-08-10T02:28:30.860Z,23.00
2022-08-10T02:31:18.427Z,23.00
2022-08-10T02:33:57.141Z,23.00
2022-08-10T02:36:27.849Z,22.90
2022-08-10T02:39:00.917Z,22.90
2022-08-10T02:42:18.402Z,22.80
2022-08-10T02:45:29.371Z,22.80
2022-08-10T02:48:26.441Z,22.80
2022-08-10T02:51:05.388Z,22.80
2022-08-10T02:53:56.240Z,22.80
2022-08-10T02:56:46.303Z,22.80
2022-08-10T02:59:20.678Z,22.80
2022-08-10T03:01:49.807Z,22.80
2022-08-10T03:04:19.246Z,22.80
2022-08-10T03:06:55.959Z,22.70
2022-08-10T03:09:26.245Z,22.80
2022-08-10T03:12:36.609Z,22.70
2022-08-10T03:14:43.130Z,22.70
2022-08-10T03:17:11.085Z,22.60
2022-08-10T03:20:34.626Z,22.70
2022-08-10T03:22:27.482Z,22.70
2022-08-10T03:24:55.635Z,22.70
2022-08-10T03:27:23.899Z,22.60
2022-08-10T03:30:29.512Z,22.60
2022-08-10T03:32:40.699Z,22.60
2022-08-10T03:35:09.084Z,22.60
2022-08-10T03:37:36.818Z,22.50
2022-08-10T03:40:05.666Z,22.50
2022-08-10T03:42:35.914Z,22.50
2022-08-10T03:45:04.724Z,22.50
2022-08-10T03:47:33.962Z,22.40
2022-08-10T03:50:24.625Z,22.40
2022-08-10T03:52:50.221Z,22.40
2022-08-10T03:56:27.383Z,22.40
2022-08-10T03:58:05.253Z,22.40
2022-08-10T04:00:35.654Z,22.30
2022-08-10T04:03:04.880Z,22.40
2022-08-10T04:05:38.142Z,22.30
2022-08-10T04:08:08.145Z,22.20
2022-08-10T04:10:35.355Z,22.20
2022-08-10T04:13:02.270Z,22.20
2022-08-10T04:15:29.176Z,22.10
2022-08-10T04:18:02.988Z,22.10
2022-08-10T04:20:40.412Z,22.00
2022-08-10T04:23:13.276Z,22.10
2022-08-10T04:25:41.014Z,22.00
2022-08-10T04:28:08.940Z,22.00
2022-08-10T04:30:37.770Z,21.90
2022-08-10T04:33:06.762Z,21.80
2022-08-10T04:35:34.667Z,21.80
2022-08-10T04:38:03.100Z,21.80
2022-08-10T04:40:31.331Z,21.80
2022-08-10T04:43:04.451Z,21.80
2022-08-10T04:45:48.460Z,21.80
2022-08-10T04:48:41.075Z,21.80
2022-08-10T04:51:07.893Z,21.80
2022-08-10T04:54:04.247Z,21.80
2022-08-10T04:56:31.644Z,21.80
2022-08-10T04:59:00.647Z,22.10
2022-08-10T05:02:21.359Z,21.90
2022-08-10T05:04:37.153Z,22.00
2022-08-10T05:07:02.502Z,22.10
2022-08-10T05:09:29.376Z,22.10
2022-08-10T05:11:56.332Z,22.10
2022-08-10T05:14:23.305Z,22.10
2022-08-10T05:16:50.362Z,22.20
2022-08-10T05:19:17.320Z,22.20
2022-08-10T05:22:01.460Z,22.20
2022-08-10T05:24:32.440Z,22.30
2022-08-10T05:27:09.610Z,22.30
2022-08-10T05:29:37.906Z,22.40
2022-08-10T05:32:05.333Z,22.50
2022-08-10T05:34:32.260Z,22.50
2022-08-10T05:36:59.979Z,22.50
2022-08-10T05:39:31.920Z,22.60
2022-08-10T05:42:01.083Z,22.60
2022-08-10T05:44:29.684Z,22.60
2022-08-10T05:46:57.196Z,22.60
2022-08-10T05:49:24.733Z,22.60
2022-08-10T05:51:52.370Z,22.70
2022-08-10T05:54:20.177Z,22.70
2022-08-10T05:56:53.298Z,22.70
2022-08-10T06:00:34.428Z,22.70
2022-08-10T06:02:35.633Z,22.80
2022-08-10T06:05:07.080Z,22.80
2022-08-10T06:07:37.684Z,22.80
2022-08-10T06:10:10.145Z,22.80
2022-08-10T06:12:55.424Z,22.80
2022-08-10T06:15:50.216Z,22.80
2022-08-10T06:18:14.988Z,22.90
2022-08-10T06:20:42.727Z,23.00
2022-08-10T06:23:11.312Z,23.00
2022-08-10T06:26:11.842Z,23.00
2022-08-10T06:28:28.392Z,23.00
2022-08-10T06:30:56.853Z,23.10
2022-08-10T06:33:25.568Z,23.10
2022-08-10T06:35:55.123Z,23.20
2022-08-10T06:38:23.926Z,23.20
2022-08-10T06:40:55.814Z,23.30
2022-08-10T06:43:24.641Z,23.30
2022-08-10T06:46:08.162Z,23.30
2022-08-10T06:48:59.646Z,23.40
2022-08-10T06:51:30.888Z,23.50
2022-08-10T06:54:02.882Z,23.50
2022-08-10T06:56:36.595Z,23.60
2022-08-10T06:59:22.736Z,23.70
2022-08-10T07:01:58.377Z,23.80
2022-08-10T07:04:32.920Z,23.90
2022-08-10T07:07:05.899Z,23.80
2022-08-10T07:09:41.534Z,23.90
2022-08-10T07:12:10.665Z,24.00
2022-08-10T07:14:41.346Z,24.10
2022-08-10T07:17:15.339Z,24.10
2022-08-10T07:19:50.229Z,24.20
2022-08-10T07:23:01.737Z,24.20
2022-08-10T07:25:10.074Z,24.30
2022-08-10T07:28:00.836Z,24.30
2022-08-10T07:30:30.347Z,24.40
2022-08-10T07:32:58.682Z,24.40
2022-08-10T07:35:30.740Z,24.40
2022-08-10T07:38:04.763Z,24.50
2022-08-10T07:40:33.645Z,24.60
2022-08-10T07:43:03.147Z,24.60
2022-08-10T07:45:31.625Z,24.80
2022-08-10T07:48:07.909Z,24.80
2022-08-10T07:50:38.948Z,24.80
2022-08-10T07:53:10.081Z,24.90
2022-08-10T07:56:05.411Z,24.80
2022-08-10T07:58:31.963Z,25.00
2022-08-10T08:01:00.689Z,25.10
2022-08-10T08:03:29.536Z,25.20
2022-08-10T08:06:05.381Z,25.20
2022-08-10T08:08:40.528Z,25.40
2022-08-10T08:11:08.921Z,25.40
2022-08-10T08:13:38.017Z,25.50
2022-08-10T08:16:20.786Z,25.60
2022-08-10T08:19:24.093Z,25.70
2022-08-10T08:24:30.560Z,25.70
2022-08-10T08:24:39.582Z,25.80
2022-08-10T08:27:07.753Z,25.90
2022-08-10T08:29:37.455Z,25.90
2022-08-10T08:32:05.379Z,26.00
2022-08-10T08:34:35.676Z,26.10
2022-08-10T08:37:04.628Z,26.10
2022-08-10T08:39:34.665Z,26.20
2022-08-10T08:42:33.868Z,26.20
2022-08-10T08:45:08.426Z,26.20
2022-08-10T08:48:13.082Z,26.30
2022-08-10T08:52:12.387Z,26.30
2022-08-10T08:54:36.120Z,26.30
2022-08-10T08:57:50.800Z,26.40
2022-08-10T09:00:44.409Z,26.40
2022-08-10T09:03:47.164Z,26.40
2022-08-10T09:06:51.847Z,26.50
2022-08-10T09:09:50.817Z,26.50
2022-08-10T09:12:30.093Z,26.50
2022-08-10T09:15:00.665Z,26.60
2022-08-10T09:17:32.606Z,26.60
2022-08-10T09:20:22.650Z,26.70
2022-08-10T09:23:15.389Z,26.70
2022-08-10T09:25:53.205Z,26.70
2022-08-10T09:28:37.157Z,26.80
2022-08-10T09:31:22.035Z,26.90
2022-08-10T09:36:20.171Z,26.90
2022-08-10T09:37:13.967Z,27.00
2022-08-10T09:40:06.755Z,27.00
2022-08-10T09:43:25.553Z,27.10
2022-08-10T09:46:33.687Z,27.20
2022-08-10T09:49:54.722Z,27.30
2022-08-10T09:52:59.137Z,27.30
2022-08-10T09:56:19.338Z,27.40
2022-08-10T09:59:48.236Z,27.50
2022-08-10T10:02:36.829Z,27.60
2022-08-10T10:05:37.199Z,27.70
2022-08-10T10:08:15.972Z,27.70
2022-08-10T10:10:54.728Z,27.80
2022-08-10T10:14:02.845Z,27.90
2022-08-10T10:16:53.346Z,28.00
2022-08-10T10:19:33.624Z,28.00
2022-08-10T10:22:26.534Z,28.10
2022-08-10T10:25:19.880Z,28.10
2022-08-10T10:28:05.893Z,28.10
2022-08-10T10:30:42.488Z,28.20
2022-08-10T10:33:13.198Z,28.30
2022-08-10T10:35:59.280Z,28.30
2022-08-10T10:38:34.361Z,28.40
2022-08-10T10:41:16.761Z,28.50
2022-08-10T10:44:11.675Z,28.50
2022-08-10T10:47:07.805Z,28.50
2022-08-10T10:49:59.307Z,28.50
2022-08-10T10:52:43.327Z,28.60
2022-08-10T10:55:23.393Z,28.60
2022-08-10T10:58:22.444Z,28.70
2022-08-10T11:01:12.827Z,28.70
2022-08-10T11:04:01.093Z,28.80
2022-08-10T11:06:39.862Z,28.90
2022-08-10T11:10:06.030Z,29.00
2022-08-10T11:12:18.261Z,29.10
2022-08-10T11:15:06.725Z,29.10
2022-08-10T11:17:41.015Z,29.20
2022-08-10T11:20:37.112Z,29.30
2022-08-10T11:23:19.450Z,29.30
2022-08-10T11:25:54.694Z,29.30
2022-08-10T11:28:37.077Z,29.30
2022-08-10T11:31:27.659Z,29.50
2022-08-10T11:34:48.871Z,29.60
2022-08-10T11:36:49.499Z,29.70
2022-08-10T11:39:27.611Z,29.60
2022-08-10T11:42:09.751Z,29.70
2022-08-10T11:44:54.427Z,29.80
2022-08-10T11:47:36.265Z,29.70
2022-08-10T11:50:28.459Z,29.60
2022-08-10T11:53:00.168Z,29.60
2022-08-10T11:55:32.940Z,29.60
2022-08-10T11:58:30.608Z,29.50
2022-08-10T12:01:02.366Z,29.60
2022-08-10T12:03:34.719Z,29.60
2022-08-10T12:06:04.397Z,29.60
2022-08-10T12:10:04.279Z,29.70
2022-08-10T12:11:25.320Z,29.80
2022-08-10T12:14:20.393Z,29.90
2022-08-10T12:16:52.574Z,30.00
2022-08-10T12:19:59.533Z,30.00
2022-08-10T12:22:23.161Z,30.10
2022-08-10T12:24:55.388Z,30.30
2022-08-10T12:27:31.176Z,30.40
2022-08-10T12:30:14.453Z,30.60
2022-08-10T12:33:06.821Z,30.80
2022-08-10T12:36:17.763Z,30.80
2022-08-10T12:39:23.914Z,31.00
2022-08-10T12:42:37.073Z,31.20
2022-08-10T12:45:16.135Z,31.30
2022-08-10T12:48:02.212Z,31.30
2022-08-10T12:51:00.614Z,31.20
2022-08-10T12:53:50.067Z,31.10
2022-08-10T12:56:26.672Z,31.00
2022-08-10T12:59:00.272Z,30.80
2022-08-10T13:02:06.728Z,30.70
2022-08-10T13:04:28.550Z,30.80
2022-08-10T13:06:58.350Z,30.90
2022-08-10T13:09:25.951Z,31.00
2022-08-10T13:12:35.580Z,31.20
2022-08-10T13:15:47.709Z,31.20
2022-08-10T13:18:18.953Z,31.20
2022-08-10T13:20:51.774Z,31.40
2022-08-10T13:23:24.062Z,31.50
2022-08-10T13:25:53.840Z,31.50
2022-08-10T13:28:39.539Z,31.40
2022-08-10T13:31:16.314Z,31.40
2022-08-10T13:34:38.815Z,31.30
2022-08-10T13:36:47.543Z,31.20
2022-08-10T13:39:18.301Z,31.00
2022-08-10T13:41:46.938Z,30.90
2022-08-10T13:44:27.883Z,30.80
2022-08-10T13:46:56.253Z,30.80
2022-08-10T13:49:23.600Z,30.80
2022-08-10T13:51:57.085Z,30.70
2022-08-10T13:54:28.518Z,30.70
2022-08-10T13:56:56.780Z,30.90
2022-08-10T14:00:37.407Z,31.00
2022-08-10T14:02:23.252Z,31.00
2022-08-10T14:04:51.569Z,31.00
2022-08-10T14:07:19.662Z,31.00
2022-08-10T14:09:48.744Z,30.90
2022-08-10T14:12:17.689Z,30.90
2022-08-10T14:14:52.675Z,30.90
2022-08-10T14:17:22.683Z,30.80
2022-08-10T14:19:59.181Z,30.70
2022-08-10T14:22:34.389Z,30.60
2022-08-10T14:25:12.095Z,30.50
2022-08-10T14:28:02.894Z,30.40
2022-08-10T14:30:33.052Z,30.40
2022-08-10T14:33:04.489Z,30.30
2022-08-10T14:36:22.472Z,30.40
2022-08-10T14:38:33.213Z,30.50
2022-08-10T14:41:02.462Z,30.60
2022-08-10T14:43:38.107Z,30.70
2022-08-10T14:46:08.365Z,30.70
2022-08-10T14:48:43.407Z,30.80
2022-08-10T14:51:15.690Z,30.80
2022-08-10T14:53:44.356Z,30.80
2022-08-10T14:56:15.406Z,30.90
2022-08-10T14:59:05.751Z,31.00
2022-08-10T15:01:59.774Z,31.10
2022-08-10T15:04:29.274Z,31.20
2022-08-10T15:07:12.806Z,31.10
2022-08-10T15:10:00.945Z,31.10
2022-08-10T15:12:33.293Z,31.00
2022-08-10T15:15:02.404Z,30.90
2022-08-10T15:17:34.715Z,30.80
2022-08-10T15:20:21.116Z,30.80
2022-08-10T15:22:55.991Z,30.70
2022-08-10T15:25:26.190Z,30.80
2022-08-10T15:28:10.371Z,30.80
2022-08-10T15:30:42.611Z,31.10
2022-08-10T15:34:02.103Z,31.20
2022-08-10T15:36:40.861Z,31.50
2022-08-10T15:39:16.529Z,31.90
2022-08-10T15:42:09.027Z,32.30
2022-08-10T15:44:43.279Z,32.60
2022-08-10T15:47:46.214Z,32.90
2022-08-10T15:50:24.938Z,33.20
2022-08-10T15:53:02.906Z,33.60
2022-08-10T15:55:44.109Z,33.80
2022-08-10T15:58:48.010Z,33.80
2022-08-10T16:02:04.662Z,33.60
2022-08-10T16:04:15.431Z,33.40
2022-08-10T16:07:15.470Z,33.10
2022-08-10T16:10:26.234Z,32.90
2022-08-10T16:12:42.699Z,32.80
2022-08-10T16:15:23.968Z,32.80
2022-08-10T16:18:12.006Z,32.70
2022-08-10T16:20:54.730Z,32.40
2022-08-10T16:23:41.908Z,32.20
2022-08-10T16:26:15.265Z,32.10
2022-08-10T16:28:50.349Z,32.20
2022-08-10T16:31:21.096Z,32.20
2022-08-10T16:33:58.034Z,32.30
2022-08-10T16:36:44.714Z,32.40
2022-08-10T16:40:00.212Z,32.50
2022-08-10T16:42:25.848Z,32.50
2022-08-10T16:45:07.051Z,32.30
2022-08-10T16:47:52.651Z,32.10
2022-08-10T16:50:37.777Z,31.80
2022-08-10T16:53:21.967Z,31.60
2022-08-10T16:55:58.400Z,31.40
2022-08-10T16:58:40.314Z,31.20
2022-08-10T17:01:11.460Z,31.10
2022-08-10T17:04:07.414Z,31.10
2022-08-10T17:06:30.810Z,31.10
2022-08-10T17:09:29.504Z,31.20
2022-08-10T17:11:58.349Z,31.30
2022-08-10T17:14:29.453Z,31.30
2022-08-10T17:17:20.574Z,31.30
2022-08-10T17:20:31.426Z,31.30
2022-08-10T17:22:50.494Z,31.30
2022-08-10T17:25:48.494Z,31.30
2022-08-10T17:28:32.763Z,31.20
2022-08-10T17:31:53.259Z,31.10
2022-08-10T17:34:03.302Z,30.90
2022-08-10T17:36:35.605Z,30.70
2022-08-10T17:39:04.677Z,30.50
2022-08-10T17:41:36.687Z,30.30
2022-08-10T17:44:06.533Z,30.20
2022-08-10T17:46:38.597Z,30.00
2022-08-10T17:49:16.205Z,29.90
2022-08-10T17:51:53.865Z,29.80
2022-08-10T17:54:27.349Z,29.60
2022-08-10T17:56:59.070Z,29.50
2022-08-10T17:59:30.054Z,29.40
2022-08-10T18:02:05.591Z,29.30
2022-08-10T18:04:41.951Z,29.20
2022-08-10T18:07:17.989Z,29.10
2022-08-10T18:09:53.274Z,29.10
2022-08-10T18:12:31.956Z,29.00
2022-08-10T18:15:11.956Z,28.90
2022-08-10T18:17:45.214Z,28.80
2022-08-10T18:20:14.169Z,28.80
2022-08-10T18:22:47.604Z,28.70
2022-08-10T18:25:33.001Z,28.60
2022-08-10T18:28:05.509Z,28.60
2022-08-10T18:30:45.135Z,28.40
2022-08-10T18:33:13.292Z,28.40
2022-08-10T18:35:41.759Z,28.30
2022-08-10T18:38:10.840Z,28.30
2022-08-10T18:40:44.636Z,28.30
2022-08-10T18:44:06.840Z,28.20
2022-08-10T18:46:08.564Z,28.20
2022-08-10T18:48:42.132Z,28.10
2022-08-10T18:51:10.943Z,28.10
2022-08-10T18:53:50.627Z,28.00
2022-08-10T18:56:20.570Z,28.00
2022-08-10T18:59:07.241Z,28.00
2022-08-10T19:01:43.808Z,27.90
2022-08-10T19:04:20.016Z,27.90
2022-08-10T19:07:09.306Z,27.80
2022-08-10T19:09:51.871Z,27.70
2022-08-10T19:12:36.363Z,27.70
2022-08-10T19:15:21.660Z,27.60
2022-08-10T19:18:32.461Z,27.60
2022-08-10T19:21:21.480Z,27.50
2022-08-10T19:24:07.978Z,27.50
2022-08-10T19:26:45.703Z,27.40
2022-08-10T19:30:07.852Z,27.40
2022-08-10T19:33:01.261Z,27.30
2022-08-10T19:36:08.698Z,27.30
2022-08-10T19:39:12.368Z,26.90
2022-08-10T19:41:48.300Z,27.20
2022-08-10T19:44:45.087Z,27.10
2022-08-10T19:47:46.811Z,27.00
2022-08-10T19:50:20.799Z,27.00
2022-08-10T19:52:47.699Z,26.90
2022-08-10T19:55:33.350Z,26.90
2022-08-10T19:58:18.982Z,26.80
2022-08-10T20:01:01.857Z,26.80
2022-08-10T20:04:16.029Z,26.70
2022-08-10T20:06:49.710Z,26.70
2022-08-10T20:09:25.499Z,26.60
2022-08-10T20:12:06.337Z,26.50
2022-08-10T20:15:00.486Z,26.50
2022-08-10T20:17:52.778Z,26.40
2022-08-10T20:20:31.010Z,26.40
2022-08-10T20:23:08.251Z,26.30
2022-08-10T20:25:35.459Z,26.30
2022-08-10T20:28:18.847Z,26.20
2022-08-10T20:30:51.536Z,26.10
2022-08-10T20:33:27.497Z,26.10
2022-08-10T20:36:09.524Z,26.10
2022-08-10T20:38:56.061Z,26.00
2022-08-10T20:41:25.839Z,26.00
2022-08-10T20:44:16.987Z,25.90
2022-08-10T20:46:52.635Z,25.90
2022-08-10T20:49:48.821Z,25.80
2022-08-10T20:52:15.888Z,25.80
2022-08-10T20:54:51.114Z,25.70
2022-08-10T20:57:54.412Z,25.60
2022-08-10T21:00:30.020Z,25.60
2022-08-10T21:03:21.347Z,25.60
2022-08-10T21:05:54.828Z,25.50
2022-08-10T21:08:50.808Z,25.40
2022-08-10T21:11:40.136Z,25.40
2022-08-10T21:14:19.257Z,25.40
2022-08-10T21:17:17.743Z,25.30
2022-08-10T21:20:15.601Z,25.30
2022-08-10T21:22:46.018Z,25.20
2022-08-10T21:25:29.493Z,25.10
2022-08-10T21:28:16.608Z,25.10
2022-08-10T21:31:10.933Z,25.10
2022-08-10T21:33:59.486Z,25.10
2022-08-10T21:36:34.819Z,25.10
2022-08-10T21:39:20.137Z,25.00
2022-08-10T21:42:23.514Z,25.00
2022-08-10T21:45:59.132Z,25.00
2022-08-10T21:48:59.217Z,25.00
2022-08-10T21:52:01.338Z,24.90
2022-08-10T21:55:58.060Z,24.80
2022-08-10T21:59:05.294Z,24.50
2022-08-10T22:01:55.831Z,24.70
2022-08-10T22:04:45.668Z,24.60
2022-08-10T22:07:50.985Z,24.60
2022-08-10T22:10:41.588Z,24.60
2022-08-10T22:13:28.632Z,24.60
2022-08-10T22:16:24.314Z,24.50
2022-08-10T22:19:17.463Z,24.40
2022-08-10T22:22:27.215Z,24.40
2022-08-10T22:25:45.920Z,24.40
2022-08-10T22:28:38.279Z,24.40
2022-08-10T22:31:48.849Z,24.30
2022-08-10T22:35:04.345Z,24.10
2022-08-10T22:38:26.054Z,24.20
2022-08-10T22:41:17.505Z,24.20
2022-08-10T22:44:08.293Z,24.10
2022-08-10T22:46:54.512Z,24.10
2022-08-10T22:49:23.123Z,24.10
2022-08-10T22:52:06.413Z,24.10
2022-08-10T22:54:58.867Z,24.10
2022-08-10T22:57:44.843Z,24.10
2022-08-10T23:00:18.526Z,24.00
2022-08-10T23:03:12.548Z,23.90
2022-08-10T23:05:54.321Z,24.00
2022-08-10T23:08:32.134Z,23.90
2022-08-10T23:11:08.446Z,23.90
2022-08-10T23:13:43.419Z,23.90
2022-08-10T23:16:37.003Z,23.90
2022-08-10T23:19:31.603Z,23.90
2022-08-10T23:22:11.661Z,23.90
2022-08-10T23:24:41.600Z,23.90
2022-08-10T23:27:12.616Z,23.90
2022-08-10T23:30:02.005Z,23.80
2022-08-10T23:32:32.286Z,23.80
2022-08-10T23:36:30.368Z,23.70
2022-08-10T23:37:52.840Z,23.70
2022-08-10T23:40:21.180Z,23.70
2022-08-10T23:42:51.065Z,23.70
2022-08-10T23:45:23.341Z,23.70
2022-08-10T23:47:58.336Z,23.60
2022-08-10T23:50:28.264Z,23.60
2022-08-10T23:52:58.998Z,23.50
2022-08-10T23:55:29.877Z,23.50
2022-08-10T23:58:33.494Z,23.50
